createdAt,value
2023-12-28T00:00:01.058Z,100699.16
2023-12-28T00:02:47.421Z,100711.00
2023-12-28T00:05:34.277Z,100704.25
2023-12-28T00:08:20.841Z,100713.72
2023-12-28T00:11:07.442Z,100718.72
2023-12-28T00:13:54.919Z,100708.03
2023-12-28T00:16:41.394Z,100710.91
2023-12-28T00:19:28.044Z,100712.50
2023-12-28T00:22:14.310Z,100719.31
2023-12-28T00:25:00.551Z,100723.44
2023-12-28T00:27:48.105Z,100736.50
2023-12-28T00:30:36.430Z,100738.28
2023-12-28T00:33:22.773Z,100738.28
2023-12-28T00:36:09.939Z,100742.25
2023-12-28T00:38:56.069Z,100746.69
2023-12-28T00:41:42.610Z,100745.91
2023-12-28T00:44:30.270Z,100741.72
2023-12-28T00:47:18.368Z,100751.25
2023-12-28T00:50:05.286Z,100760.81
2023-12-28T00:52:51.659Z,100747.72
2023-12-28T00:55:38.516Z,100756.13
2023-12-28T00:58:24.517Z,100755.34
2023-12-28T01:01:11.066Z,100747.19
2023-12-28T01:04:00.913Z,100738.84
2023-12-28T01:06:47.575Z,100744.47
2023-12-28T01:09:34.429Z,100737.31
2023-12-28T01:12:21.143Z,100757.03
2023-12-28T01:15:09.168Z,100748.16
2023-12-28T01:17:55.865Z,100754.28
2023-12-28T01:20:44.041Z,100760.88
2023-12-28T01:23:30.706Z,100758.38
2023-12-28T01:26:18.170Z,100760.75
2023-12-28T01:29:05.045Z,100776.66
2023-12-28T01:31:51.532Z,100763.19
2023-12-28T01:34:37.698Z,100770.44
2023-12-28T01:37:25.521Z,100755.63
2023-12-28T01:40:12.666Z,100758.63
2023-12-28T01:42:59.186Z,100759.13
2023-12-28T01:45:46.160Z,100768.88
2023-12-28T01:48:32.517Z,100767.13
2023-12-28T01:51:19.401Z,100763.69
2023-12-28T01:54:07.250Z,100767.00
2023-12-28T01:56:53.426Z,100771.38
2023-12-28T01:59:39.986Z,100772.94
2023-12-28T02:02:26.401Z,100765.47
2023-12-28T02:05:13.847Z,100756.44
2023-12-28T02:08:01.099Z,100762.84
2023-12-28T02:10:49.149Z,100767.63
2023-12-28T02:13:35.612Z,100767.13
2023-12-28T02:16:30.798Z,100764.97
2023-12-28T02:19:26.749Z,100769.91
2023-12-28T02:22:16.211Z,100767.28
2023-12-28T02:25:07.385Z,100757.94
2023-12-28T02:27:54.285Z,100762.66
2023-12-28T02:30:40.898Z,100771.19
2023-12-28T02:33:35.998Z,100771.97
2023-12-28T02:36:25.477Z,100767.56
2023-12-28T02:39:13.665Z,100767.84
2023-12-28T02:42:01.628Z,100768.13
2023-12-28T02:44:47.938Z,100760.66
2023-12-28T02:47:34.499Z,100761.28
2023-12-28T02:50:20.683Z,100741.63
2023-12-28T02:53:07.352Z,100756.25
2023-12-28T02:55:55.247Z,100734.19
2023-12-28T02:58:42.745Z,100748.16
2023-12-28T03:01:29.816Z,100742.59
2023-12-28T03:04:16.473Z,100728.78
2023-12-28T03:07:02.768Z,100747.81
2023-12-28T03:09:49.495Z,100749.00
2023-12-28T03:12:36.430Z,100744.13
2023-12-28T03:15:24.134Z,100751.72
2023-12-28T03:18:10.773Z,100747.44
2023-12-28T03:20:57.924Z,100738.38
2023-12-28T03:23:44.272Z,100747.84
2023-12-28T03:26:30.441Z,100738.09
2023-12-28T03:29:16.976Z,100739.34
2023-12-28T03:32:05.105Z,100749.13
2023-12-28T03:34:51.345Z,100738.50
2023-12-28T03:37:38.699Z,100733.06
2023-12-28T03:40:24.879Z,100723.72
2023-12-28T03:43:11.631Z,100734.84
2023-12-28T03:45:58.101Z,100722.31
2023-12-28T03:48:45.827Z,100722.78
2023-12-28T03:51:32.435Z,100717.41
2023-12-28T03:54:19.454Z,100728.53
2023-12-28T03:57:06.420Z,100722.09
2023-12-28T03:59:52.814Z,100743.22
2023-12-28T04:02:39.096Z,100740.50
2023-12-28T04:05:26.715Z,100733.28
2023-12-28T04:08:13.302Z,100724.81
2023-12-28T04:10:59.763Z,100732.91
2023-12-28T04:13:46.238Z,100740.28
2023-12-28T04:16:32.294Z,100731.78
2023-12-28T04:19:21.389Z,100731.72
2023-12-28T04:22:09.659Z,100737.09
2023-12-28T04:24:56.189Z,100734.16
2023-12-28T04:27:44.192Z,100742.09
2023-12-28T04:30:30.938Z,100732.16
2023-12-28T04:33:20.200Z,100747.97
2023-12-28T04:36:07.716Z,100745.97
2023-12-28T04:38:55.679Z,100735.63
2023-12-28T04:41:42.398Z,100747.94
2023-12-28T04:44:28.591Z,100737.59
2023-12-28T04:47:14.713Z,100732.69
2023-12-28T04:50:00.960Z,100722.94
2023-12-28T04:52:47.684Z,100720.56
2023-12-28T04:55:35.121Z,100727.03
2023-12-28T04:58:21.526Z,100743.81
2023-12-28T05:01:07.797Z,100746.47
2023-12-28T05:03:54.187Z,100755.25
2023-12-28T05:06:41.681Z,100750.16
2023-12-28T05:09:28.164Z,100751.56
2023-12-28T05:12:15.954Z,100754.06
2023-12-28T05:15:02.020Z,100741.66
2023-12-28T05:17:51.798Z,100752.84
2023-12-28T05:20:38.236Z,100747.00
2023-12-28T05:23:24.760Z,100740.19
2023-12-28T05:26:11.293Z,100742.34
2023-12-28T05:28:59.067Z,100742.91
2023-12-28T05:31:45.806Z,100751.34
2023-12-28T05:34:33.129Z,100762.69
2023-12-28T05:37:19.652Z,100746.25
2023-12-28T05:40:07.527Z,100742.91
2023-12-28T05:42:54.411Z,100761.88
2023-12-28T05:45:42.113Z,100741.00
2023-12-28T05:48:29.420Z,100751.78
2023-12-28T05:51:15.803Z,100747.75
2023-12-28T05:54:02.121Z,100750.69
2023-12-28T05:56:48.548Z,100749.59
2023-12-28T05:59:34.880Z,100764.84
2023-12-28T06:02:22.699Z,100761.69
2023-12-28T06:05:09.255Z,100773.16
2023-12-28T06:07:55.512Z,100771.63
2023-12-28T06:10:42.054Z,100766.66
2023-12-28T06:13:28.265Z,100762.28
2023-12-28T06:16:15.004Z,100761.88
2023-12-28T06:19:03.340Z,100756.59
2023-12-28T06:21:50.167Z,100770.44
2023-12-28T06:24:40.315Z,100771.78
2023-12-28T06:27:26.642Z,100780.06
2023-12-28T06:30:14.154Z,100787.56
2023-12-28T06:33:00.589Z,100797.31
2023-12-28T06:35:48.457Z,100796.63
2023-12-28T06:38:35.072Z,100787.09
2023-12-28T06:41:21.378Z,100797.38
2023-12-28T06:44:07.752Z,100808.41
2023-12-28T06:46:56.783Z,100798.22
2023-12-28T06:49:42.936Z,100795.69
2023-12-28T06:52:32.618Z,100808.78
2023-12-28T06:55:19.472Z,100798.16
2023-12-28T06:58:07.243Z,100790.25
2023-12-28T07:00:56.200Z,100790.81
2023-12-28T07:03:42.725Z,100799.69
2023-12-28T07:06:29.198Z,100797.03
2023-12-28T07:09:17.056Z,100798.91
2023-12-28T07:12:03.550Z,100804.41
2023-12-28T07:14:49.945Z,100785.09
2023-12-28T07:17:36.492Z,100801.47
2023-12-28T07:20:22.836Z,100803.16
2023-12-28T07:23:09.849Z,100825.97
2023-12-28T07:25:57.651Z,100817.81
2023-12-28T07:28:46.264Z,100817.75
2023-12-28T07:31:33.482Z,100822.69
2023-12-28T07:34:20.164Z,100820.00
2023-12-28T07:37:06.586Z,100824.28
2023-12-28T07:39:53.336Z,100828.59
2023-12-28T07:42:41.468Z,100831.25
2023-12-28T07:45:28.201Z,100840.44
2023-12-28T07:48:15.289Z,100855.78
2023-12-28T07:51:06.332Z,100866.75
2023-12-28T07:53:52.591Z,100877.84
2023-12-28T07:56:39.030Z,100873.69
2023-12-28T07:59:26.901Z,100888.53
2023-12-28T08:02:13.413Z,100885.38
2023-12-28T08:05:00.325Z,100886.00
2023-12-28T08:07:46.626Z,100867.56
2023-12-28T08:10:33.318Z,100870.13
2023-12-28T08:13:21.974Z,100869.31
2023-12-28T08:16:10.433Z,100871.13
2023-12-28T08:18:57.424Z,100875.97
2023-12-28T08:21:43.821Z,100881.88
2023-12-28T08:24:31.556Z,100887.22
2023-12-28T08:27:17.992Z,100886.69
2023-12-28T08:30:05.620Z,100882.53
2023-12-28T08:32:53.559Z,100880.97
2023-12-28T08:35:40.040Z,100891.00
2023-12-28T08:38:26.567Z,100884.59
2023-12-28T08:41:20.157Z,100888.75
2023-12-28T08:44:06.382Z,100900.56
2023-12-28T08:46:52.566Z,100912.94
2023-12-28T08:49:40.513Z,100894.72
2023-12-28T08:52:27.401Z,100895.38
2023-12-28T08:55:13.751Z,100902.88
2023-12-28T08:58:00.557Z,100907.94
2023-12-28T09:00:48.159Z,100906.09
2023-12-28T09:03:34.681Z,100912.41
2023-12-28T09:06:23.141Z,100912.19
2023-12-28T09:09:10.348Z,100908.16
2023-12-28T09:11:56.530Z,100890.47
2023-12-28T09:14:42.719Z,100888.66
2023-12-28T09:17:29.263Z,100896.59
2023-12-28T09:20:15.745Z,100905.44
2023-12-28T09:23:03.575Z,100919.88
2023-12-28T09:25:50.605Z,100912.66
2023-12-28T09:28:37.171Z,100924.00
2023-12-28T09:31:23.283Z,100915.44
2023-12-28T09:34:09.987Z,100919.69
2023-12-28T09:36:56.675Z,100915.63
2023-12-28T09:39:45.925Z,100931.50
2023-12-28T09:42:38.347Z,100948.25
